Time;durP1;ratioP1;P1;durP2;ratioP2;P2;SDS_P1;SDS_P2;PMS_P1;PMS_P2;Temp;Humidity;BMP_temperature;BMP_pressure;BME280_temperature;BME280_humidity;BME280_pressure;Samples;Min_cycle;Max_cycle;Signal;HPM_P1;HPM_P2
2022/12/30 00:00:06;;;;;;;13.45;2.67;;;;;;;6.14;100.00;100173.53;5020528;28;20197;-47
2022/12/30 00:02:36;;;;;;;13.38;2.42;;;;;;;6.18;100.00;100170.72;5015302;28;20216;-47
2022/12/30 00:05:01;;;;;;;10.93;2.83;;;;;;;6.20;100.00;100181.31;5006633;28;20208;-47
2022/12/30 00:07:27;;;;;;;14.32;3.50;;;;;;;6.21;100.00;100188.41;5013286;28;20181;-48
2022/12/30 00:09:53;;;;;;;13.85;2.88;;;;;;;6.26;100.00;100197.09;5008705;28;20319;-47
2022/12/30 00:34:17;;;;;;;14.23;4.00;;;;;;;6.54;100.00;100212.22;5013738;28;20227;-46
2022/12/30 00:36:43;;;;;;;14.90;2.50;;;;;;;6.58;100.00;100216.50;5006276;28;20648;-47
2022/12/30 00:39:09;;;;;;;17.42;3.35;;;;;;;6.62;100.00;100238.56;5000719;28;20212;-45
2022/12/30 00:44:19;;;;;;;10.35;2.78;;;;;;;6.59;100.00;100243.06;5009699;28;20275;-46
2022/12/30 00:46:45;;;;;;;11.38;2.72;;;;;;;6.55;100.00;100254.72;5018815;28;20264;-49
2022/12/30 00:57:23;;;;;;;17.38;3.45;;;;;;;6.66;100.00;100243.75;5002263;28;20259;-48
2022/12/30 00:59:49;;;;;;;14.13;3.22;;;;;;;6.71;100.00;100249.81;5004003;28;20293;-46
2022/12/30 01:02:14;;;;;;;14.70;2.72;;;;;;;6.65;100.00;100244.69;5007978;28;20197;-46
2022/12/30 01:04:40;;;;;;;13.13;2.90;;;;;;;6.63;100.00;100251.84;5001131;28;20185;-46
2022/12/30 01:07:05;;;;;;;15.30;3.33;;;;;;;6.67;100.00;100240.19;5013434;28;20189;-45
2022/12/30 01:09:34;;;;;;;13.68;3.22;;;;;;;6.66;100.00;100254.41;5006523;28;20181;-47
2022/12/30 01:12:08;;;;;;;15.77;3.63;;;;;;;6.63;100.00;100265.16;5013715;28;20192;-48
2022/12/30 01:14:34;;;;;;;17.92;3.30;;;;;;;6.61;100.00;100261.66;5022030;28;20278;-50
2022/12/30 01:17:00;;;;;;;15.30;3.33;;;;;;;6.62;100.00;100254.53;5013703;28;20518;-49
2022/12/30 01:19:25;;;;;;;12.77;2.88;;;;;;;6.67;100.00;100252.59;5012767;28;20215;-47
2022/12/30 01:21:51;;;;;;;14.43;3.20;;;;;;;6.57;100.00;100260.00;5012315;28;20651;-47
2022/12/30 01:24:16;;;;;;;12.65;2.80;;;;;;;6.64;100.00;100274.00;5004180;28;20557;-46
2022/12/30 01:26:42;;;;;;;13.63;2.85;;;;;;;6.59;100.00;100277.66;5005070;28;20230;-49
2022/12/30 01:29:07;;;;;;;16.50;3.45;;;;;;;6.59;100.00;100285.66;5010901;28;20188;-50
2022/12/30 01:31:33;;;;;;;17.25;3.25;;;;;;;6.60;100.00;100283.84;5008219;28;20551;-44
2022/12/30 01:33:58;;;;;;;13.18;2.78;;;;;;;6.53;100.00;100279.66;5020962;28;20196;-47
2022/12/30 01:36:24;;;;;;;19.95;4.22;;;;;;;6.49;100.00;100284.19;5016262;28;20283;-47
2022/12/30 01:38:49;;;;;;;16.30;3.20;;;;;;;6.50;100.00;100275.28;5006277;28;20208;-47
2022/12/30 01:41:15;;;;;;;13.32;2.70;;;;;;;6.57;100.00;100289.28;5011325;28;20200;-45
2022/12/30 01:43:44;;;;;;;12.43;2.83;;;;;;;6.52;100.00;100294.75;5004952;28;20285;-46
2022/12/30 01:46:15;;;;;;;15.52;3.45;;;;;;;6.55;100.00;100315.06;5003701;28;20187;-46
2022/12/30 01:48:40;;;;;;;13.80;2.90;;;;;;;6.62;100.00;100303.31;5008823;28;20227;-47
2022/12/30 01:51:23;;;;;;;19.08;3.70;;;;;;;6.53;100.00;100298.28;5003636;28;20177;-47
2022/12/30 01:53:50;;;;;;;16.08;2.78;;;;;;;6.57;100.00;100308.78;5009103;28;20212;-47
2022/12/30 01:56:22;;;;;;;12.57;2.83;;;;;;;6.50;100.00;100314.34;5010889;28;20550;-46
2022/12/30 01:58:54;;;;;;;15.63;2.53;;;;;;;6.51;100.00;100321.41;5016873;28;20188;-46
2022/12/30 02:01:20;;;;;;;14.57;3.00;;;;;;;6.47;100.00;100304.69;5022594;28;20267;-47
2022/12/30 02:03:54;;;;;;;17.52;2.92;;;;;;;6.54;100.00;100314.22;5016241;28;20204;-47
2022/12/30 02:06:25;;;;;;;12.63;2.58;;;;;;;6.48;100.00;100314.38;5019241;28;20214;-47
2022/12/30 02:08:51;;;;;;;10.95;3.30;;;;;;;6.45;100.00;100330.47;5011973;28;20653;-46
2022/12/30 02:11:17;;;;;;;12.20;3.05;;;;;;;6.48;100.00;100325.03;5006436;28;20177;-46
2022/12/30 02:13:42;;;;;;;17.58;3.22;;;;;;;6.46;100.00;100310.03;5013668;28;20196;-48
2022/12/30 02:16:20;;;;;;;10.73;2.90;;;;;;;6.47;100.00;100330.38;5013715;28;20188;-48
2022/12/30 02:19:15;;;;;;;15.52;3.13;;;;;;;6.49;100.00;100326.75;5008284;28;20176;-47
2022/12/30 02:22:09;;;;;;;15.32;3.28;;;;;;;6.52;100.00;100326.69;5022453;28;20193;-48
2022/12/30 02:25:00;;;;;;;14.35;3.35;;;;;;;6.48;100.00;100332.16;5020771;28;20816;-48
2022/12/30 02:27:37;;;;;;;13.90;3.10;;;;;;;6.48;100.00;100335.69;5012936;28;20177;-49
2022/12/30 02:30:09;;;;;;;8.82;2.60;;;;;;;6.48;100.00;100341.00;5008890;28;20175;-47
2022/12/30 02:32:59;;;;;;;12.73;3.03;;;;;;;6.36;100.00;100336.91;5004348;28;20215;-47
2022/12/30 02:35:35;;;;;;;15.18;2.92;;;;;;;6.34;100.00;100343.16;5007323;28;20189;-47
2022/12/30 02:38:29;;;;;;;12.65;3.10;;;;;;;6.37;100.00;100335.13;5009455;28;20655;-48
2022/12/30 02:46:49;;;;;;;20.95;3.15;;;;;;;6.26;100.00;100337.22;5023811;28;20176;-45
2022/12/30 02:49:17;;;;;;;12.48;3.08;;;;;;;6.29;100.00;100350.44;5019751;28;20631;-48
2022/12/30 02:54:28;;;;;;;10.55;2.70;;;;;;;6.31;100.00;100346.81;5018067;28;20550;-46
2022/12/30 02:56:53;;;;;;;15.15;3.35;;;;;;;6.28;100.00;100340.72;5009700;28;20272;-47
2022/12/30 03:05:23;;;;;;;18.83;3.03;;;;;;;6.33;100.00;100352.09;5010637;28;20197;-46
2022/12/30 03:08:00;;;;;;;13.43;2.60;;;;;;;6.24;100.00;100352.34;5021665;28;20188;-46
2022/12/30 03:13:50;;;;;;;13.30;2.67;;;;;;;6.31;100.00;100359.25;5019387;28;20637;-46
2022/12/30 03:16:31;;;;;;;14.63;2.78;;;;;;;6.23;100.00;100371.88;5008481;28;20185;-47
2022/12/30 03:19:00;;;;;;;14.85;2.70;;;;;;;6.17;100.00;100376.47;5003641;28;20188;-46
2022/12/30 03:21:28;;;;;;;11.00;3.20;;;;;;;6.17;100.00;100394.22;5009439;28;20762;-46
2022/12/30 03:27:04;;;;;;;11.18;2.83;;;;;;;6.10;100.00;100401.47;5009096;28;20184;-46
2022/12/30 03:29:49;;;;;;;17.40;3.05;;;;;;;6.07;100.00;100393.56;5008463;28;20193;-46
2022/12/30 03:32:16;;;;;;;19.58;3.25;;;;;;;6.03;100.00;100386.59;5015306;28;20197;-47
2022/12/30 03:34:42;;;;;;;16.88;3.15;;;;;;;6.04;100.00;100403.44;5021695;28;20212;-47
2022/12/30 03:37:23;;;;;;;17.35;3.05;;;;;;;6.11;100.00;100405.00;5014631;28;20429;-48
2022/12/30 03:39:57;;;;;;;15.32;3.13;;;;;;;6.13;100.00;100412.03;5018641;28;20737;-46
2022/12/30 03:42:23;;;;;;;14.48;3.53;;;;;;;6.17;100.00;100424.34;5012841;28;20640;-49
2022/12/30 03:44:50;;;;;;;15.57;3.20;;;;;;;6.26;100.00;100430.34;5002656;28;20532;-42
2022/12/30 03:47:17;;;;;;;24.50;3.20;;;;;;;6.19;100.00;100429.63;5012729;28;20264;-44
2022/12/30 03:49:43;;;;;;;13.38;3.10;;;;;;;6.17;100.00;100428.78;5013474;28;20545;-46
2022/12/30 03:52:14;;;;;;;15.88;3.35;;;;;;;6.15;100.00;100435.94;5013766;28;20207;-46
2022/12/30 03:54:40;;;;;;;18.88;3.20;;;;;;;6.18;100.00;100427.88;5021986;28;20718;-50
2022/12/30 03:57:06;;;;;;;20.95;3.28;;;;;;;6.09;100.00;100423.66;5015094;28;20192;-46
2022/12/30 03:59:32;;;;;;;14.90;3.20;;;;;;;6.06;100.00;100447.69;5021929;28;20634;-47
2022/12/30 04:01:57;;;;;;;15.63;3.35;;;;;;;6.06;100.00;100450.34;5013711;28;20196;-46
2022/12/30 04:04:23;;;;;;;16.05;3.28;;;;;;;6.03;100.00;100450.41;5001439;28;20201;-48
2022/12/30 04:06:48;;;;;;;17.02;4.03;;;;;;;5.98;100.00;100444.34;5003924;28;20185;-46
2022/12/30 04:09:13;;;;;;;13.85;2.95;;;;;;;5.98;100.00;100445.22;5002739;28;20165;-46
2022/12/30 04:11:39;;;;;;;15.65;3.40;;;;;;;6.01;100.00;100441.59;5000531;28;20188;-49
2022/12/30 04:14:04;;;;;;;14.93;3.10;;;;;;;6.04;100.00;100462.81;5011817;28;20203;-47
2022/12/30 04:16:30;;;;;;;17.58;3.47;;;;;;;5.95;100.00;100460.38;5013139;28;20189;-47
2022/12/30 04:18:55;;;;;;;21.63;3.80;;;;;;;6.01;100.00;100476.16;5023342;28;20188;-46
2022/12/30 04:21:21;;;;;;;23.00;4.35;;;;;;;6.00;100.00;100462.94;5019228;28;20289;-49
2022/12/30 04:23:46;;;;;;;25.60;3.55;;;;;;;5.96;100.00;100459.47;5012752;28;20205;-47
2022/12/30 04:26:12;;;;;;;17.80;3.45;;;;;;;6.01;100.00;100469.97;5015889;28;20188;-46
2022/12/30 04:28:38;;;;;;;18.45;3.35;;;;;;;5.96;100.00;100480.72;5010527;28;20204;-46
2022/12/30 04:31:04;;;;;;;19.73;3.25;;;;;;;5.90;100.00;100471.09;5003002;28;20683;-48
2022/12/30 04:33:29;;;;;;;19.67;3.42;;;;;;;5.89;100.00;100489.75;5008910;28;20250;-46
2022/12/30 04:35:55;;;;;;;17.60;3.47;;;;;;;5.87;100.00;100475.63;5012448;28;20640;-45
2022/12/30 04:38:20;;;;;;;23.17;3.15;;;;;;;5.83;100.00;100495.22;5010040;28;20185;-46
2022/12/30 04:40:46;;;;;;;14.35;2.90;;;;;;;5.78;100.00;100497.97;5018957;28;20212;-50
2022/12/30 04:43:11;;;;;;;18.85;3.28;;;;;;;5.86;100.00;100503.09;5015499;28;20610;-48
2022/12/30 04:45:37;;;;;;;17.55;3.33;;;;;;;5.92;100.00;100514.47;5023902;28;20182;-46
2022/12/30 04:48:02;;;;;;;21.05;3.25;;;;;;;5.93;100.00;100508.25;5019075;28;20180;-48
2022/12/30 04:50:28;;;;;;;15.77;3.13;;;;;;;5.95;100.00;100510.91;5000901;28;20261;-48
2022/12/30 04:52:54;;;;;;;13.65;3.35;;;;;;;5.92;100.00;100509.13;5002764;28;20215;-46
2022/12/30 04:55:19;;;;;;;14.27;3.38;;;;;;;5.89;100.00;100516.34;5009621;28;20184;-47
2022/12/30 04:57:45;;;;;;;18.52;3.58;;;;;;;5.89;100.00;100516.34;4998364;28;20184;-48
2022/12/30 05:00:11;;;;;;;18.55;3.72;;;;;;;5.89;100.00;100516.34;5006471;28;20219;-48
2022/12/30 05:02:37;;;;;;;15.85;3.03;;;;;;;5.86;100.00;100524.38;5014329;28;20283;-46
2022/12/30 05:05:03;;;;;;;17.52;3.05;;;;;;;5.87;100.00;100521.69;5020997;28;20330;-47
2022/12/30 05:07:29;;;;;;;19.55;3.47;;;;;;;5.85;100.00;100520.84;5019527;28;20172;-47
2022/12/30 05:09:54;;;;;;;18.85;3.22;;;;;;;5.81;100.00;100520.97;5014956;28;20213;-47
2022/12/30 05:12:20;;;;;;;15.60;2.97;;;;;;;5.83;100.00;100529.78;5014877;28;20212;-47
2022/12/30 05:14:45;;;;;;;13.02;2.80;;;;;;;5.74;100.00;100536.19;5013854;28;20189;-46
2022/12/30 05:17:11;;;;;;;22.52;3.13;;;;;;;5.77;100.00;100531.66;5007114;28;20189;-48
2022/12/30 05:19:36;;;;;;;17.25;3.63;;;;;;;5.69;100.00;100530.97;5001484;28;20280;-46
2022/12/30 05:22:02;;;;;;;22.10;3.33;;;;;;;5.74;100.00;100545.00;5009088;28;20666;-46
2022/12/30 05:27:11;;;;;;;15.50;3.42;;;;;;;5.70;100.00;100538.00;5009998;28;20692;-48
2022/12/30 05:29:36;;;;;;;16.80;3.30;;;;;;;5.70;100.00;100545.13;5015294;28;20188;-46
2022/12/30 05:32:03;;;;;;;17.45;3.47;;;;;;;5.68;100.00;100546.94;5016855;28;20260;-42
2022/12/30 05:34:28;;;;;;;19.27;3.63;;;;;;;5.77;100.00;100555.59;5020598;28;20307;-46
2022/12/30 05:36:54;;;;;;;14.45;3.20;;;;;;;5.77;100.00;100558.25;5010045;28;20242;-45
2022/12/30 05:39:19;;;;;;;23.80;3.50;;;;;;;5.69;100.00;100557.53;5029206;28;20746;-47
2022/12/30 05:41:45;;;;;;;19.83;3.17;;;;;;;5.72;100.00;100554.81;5029249;28;20207;-44
2022/12/30 05:44:10;;;;;;;21.13;3.60;;;;;;;5.63;100.00;100563.00;5030802;28;20288;-43
2022/12/30 05:46:36;;;;;;;16.38;3.33;;;;;;;5.58;100.00;100562.22;5030484;28;20171;-45
2022/12/30 05:49:01;;;;;;;15.15;3.28;;;;;;;5.52;100.00;100563.22;5030264;28;20229;-43
2022/12/30 05:51:27;;;;;;;15.57;3.03;;;;;;;5.46;100.00;100573.13;5030431;28;20453;-43
2022/12/30 05:53:52;;;;;;;16.85;3.10;;;;;;;5.45;100.00;100574.03;5026270;28;20243;-46
2022/12/30 05:56:17;;;;;;;21.25;2.95;;;;;;;5.42;100.00;100579.41;5008625;28;20632;-46
2022/12/30 05:58:43;;;;;;;18.88;3.08;;;;;;;5.34;100.00;100591.06;5007840;28;20266;-42
2022/12/30 06:01:08;;;;;;;23.88;4.05;;;;;;;5.29;100.00;100594.72;5010205;28;20283;-45
2022/12/30 06:03:35;;;;;;;12.50;2.47;;;;;;;5.21;100.00;100594.88;5010414;28;20208;-48
2022/12/30 06:06:03;;;;;;;21.50;3.80;;;;;;;5.14;100.00;100591.47;5010518;28;20260;-47
2022/12/30 06:08:29;;;;;;;16.23;3.13;;;;;;;5.06;100.00;100597.84;5010667;28;20173;-46
2022/12/30 06:10:54;;;;;;;23.02;3.90;;;;;;;5.05;100.00;100591.66;5010459;28;20541;-47
2022/12/30 06:13:20;;;;;;;15.45;3.95;;;;;;;5.08;100.00;100596.91;5010236;28;20201;-45
2022/12/30 06:15:46;;;;;;;16.75;3.55;;;;;;;5.04;100.00;100600.50;5010535;28;20669;-44
2022/12/30 06:18:11;;;;;;;24.67;4.20;;;;;;;5.01;100.00;100582.00;5009083;28;20168;-44
2022/12/30 06:20:37;;;;;;;18.65;3.35;;;;;;;4.96;100.00;100607.75;5009992;28;20296;-47
2022/12/30 06:23:03;;;;;;;22.73;3.65;;;;;;;4.86;100.00;100607.06;5010371;28;20506;-44
2022/12/30 06:25:29;;;;;;;13.32;3.38;;;;;;;4.86;100.00;100611.50;5010492;28;20171;-44
2022/12/30 06:27:55;;;;;;;23.55;3.80;;;;;;;4.83;100.00;100612.44;5008977;28;20211;-45
2022/12/30 06:30:20;;;;;;;16.75;2.88;;;;;;;4.82;100.00;100623.06;5010344;28;20200;-43
2022/12/30 06:32:46;;;;;;;21.45;3.95;;;;;;;4.83;100.00;100625.69;5009966;28;20230;-49
2022/12/30 06:35:12;;;;;;;15.32;3.22;;;;;;;4.76;100.00;100616.06;5008885;28;20227;-46
2022/12/30 06:37:38;;;;;;;13.50;3.60;;;;;;;4.78;100.00;100638.16;4994681;28;20729;-46
2022/12/30 06:40:05;;;;;;;15.65;3.22;;;;;;;4.83;100.00;100630.09;5109234;23;20243;-42
2022/12/30 06:42:31;;;;;;;19.08;3.97;;;;;;;4.74;100.00;100644.41;5023208;28;20204;-42
2022/12/30 06:44:56;;;;;;;20.15;3.78;;;;;;;4.70;100.00;100640.97;5009407;28;20203;-46
2022/12/30 06:47:22;;;;;;;23.55;3.83;;;;;;;4.73;100.00;100634.72;5011302;28;20251;-48
2022/12/30 06:49:48;;;;;;;22.30;4.43;;;;;;;4.72;100.00;100632.94;5013572;28;20161;-40
2022/12/30 06:52:13;;;;;;;21.25;3.80;;;;;;;4.65;100.00;100645.44;5012929;28;20196;-41
2022/12/30 06:54:39;;;;;;;20.38;3.58;;;;;;;4.66;100.00;100652.53;5013288;28;20683;-41
2022/12/30 06:57:04;;;;;;;19.13;3.53;;;;;;;4.64;100.00;100649.00;5013400;28;20169;-46
2022/12/30 06:59:30;;;;;;;17.92;3.53;;;;;;;4.63;100.00;100646.38;5013436;28;20199;-41
2022/12/30 07:01:56;;;;;;;18.42;4.22;;;;;;;4.68;100.00;100657.78;5013207;28;20585;-41
2022/12/30 07:04:21;;;;;;;20.48;3.55;;;;;;;4.69;100.00;100651.59;5012906;28;20161;-44
2022/12/30 07:06:47;;;;;;;14.48;3.83;;;;;;;4.66;100.00;100646.34;5011953;28;20210;-45
2022/12/30 07:09:12;;;;;;;21.90;3.95;;;;;;;4.60;100.00;100654.41;5012969;28;20180;-43
2022/12/30 07:11:38;;;;;;;26.98;5.15;;;;;;;4.57;100.00;100655.34;5011888;28;20220;-43
2022/12/30 07:14:03;;;;;;;20.05;4.35;;;;;;;4.53;100.00;100654.50;5013328;28;20192;-44
2022/12/30 07:16:29;;;;;;;19.17;4.05;;;;;;;4.51;100.00;100655.44;5012827;28;20709;-45
2022/12/30 07:18:54;;;;;;;19.70;4.45;;;;;;;4.45;100.00;100671.44;5012874;28;20183;-43
2022/12/30 07:21:20;;;;;;;16.80;3.85;;;;;;;4.45;100.00;100677.63;5012263;28;20280;-42
2022/12/30 07:23:45;;;;;;;18.58;4.72;;;;;;;4.56;100.00;100679.22;5011649;28;20201;-43
2022/12/30 07:26:11;;;;;;;15.63;4.15;;;;;;;4.60;100.00;100680.94;5012098;28;20173;-41
2022/12/30 07:28:36;;;;;;;23.70;4.32;;;;;;;4.56;100.00;100684.53;5012051;28;20248;-42
2022/12/30 07:31:02;;;;;;;16.02;4.85;;;;;;;4.56;100.00;100685.41;5012305;28;20153;-44
2022/12/30 07:33:27;;;;;;;22.13;4.97;;;;;;;4.61;100.00;100690.63;5012502;28;20659;-42
2022/12/30 07:35:53;;;;;;;21.38;5.07;;;;;;;4.66;100.00;100688.81;5012225;28;20648;-41
2022/12/30 07:38:19;;;;;;;24.23;5.35;;;;;;;4.62;100.00;100689.75;5012362;28;20175;-42
2022/12/30 07:40:44;;;;;;;21.00;5.50;;;;;;;4.72;100.00;100699.28;5012254;28;20201;-44
2022/12/30 07:43:11;;;;;;;19.85;4.75;;;;;;;4.75;100.00;100699.25;5012328;28;20211;-41
2022/12/30 07:45:36;;;;;;;23.48;6.05;;;;;;;4.77;100.00;100713.38;5012289;28;20670;-48
2022/12/30 07:48:02;;;;;;;21.98;5.03;;;;;;;4.83;100.00;100683.19;5012372;28;20205;-44
2022/12/30 07:50:28;;;;;;;17.92;4.50;;;;;;;4.74;100.00;100709.00;5011424;28;20577;-47
2022/12/30 07:52:53;;;;;;;16.45;5.15;;;;;;;4.82;100.00;100710.66;5010498;28;20200;-46
2022/12/30 07:55:20;;;;;;;26.15;6.00;;;;;;;4.85;100.00;100705.28;5011646;28;20176;-47
2022/12/30 07:57:45;;;;;;;28.70;6.82;;;;;;;4.82;100.00;100703.56;5011609;28;20204;-45
2022/12/30 08:00:12;;;;;;;18.08;6.68;;;;;;;4.95;100.00;100701.59;5011461;28;20216;-48
2022/12/30 08:02:40;;;;;;;20.65;6.55;;;;;;;4.94;100.00;100707.78;5011482;28;20200;-43
2022/12/30 08:05:09;;;;;;;23.17;6.53;;;;;;;4.93;100.00;100714.00;5011821;28;20179;-43
2022/12/30 08:07:36;;;;;;;17.90;6.03;;;;;;;4.92;100.00;100707.81;5011490;28;20176;-41
2022/12/30 08:10:02;;;;;;;19.17;5.57;;;;;;;5.00;100.00;100705.03;5009868;28;20165;-47
2022/12/30 08:12:28;;;;;;;21.10;5.68;;;;;;;5.03;100.00;100725.31;5011337;28;20184;-45
2022/12/30 08:14:53;;;;;;;18.40;5.22;;;;;;;5.06;100.00;100714.66;5010677;28;20176;-42
2022/12/30 08:17:19;;;;;;;23.48;5.07;;;;;;;5.06;100.00;100725.28;5009664;28;20196;-40
2022/12/30 08:19:44;;;;;;;20.45;6.28;;;;;;;5.09;100.00;100722.56;5011313;28;20188;-42
2022/12/30 08:22:10;;;;;;;14.70;5.45;;;;;;;5.11;100.00;100723.41;5010670;28;20215;-44
2022/12/30 08:24:35;;;;;;;19.65;5.00;;;;;;;5.12;100.00;100726.06;5010460;28;20630;-42
2022/12/30 08:27:01;;;;;;;22.98;5.68;;;;;;;5.14;100.00;100732.22;5009883;28;20188;-43
2022/12/30 08:29:26;;;;;;;25.98;5.35;;;;;;;5.19;100.00;100725.97;5009412;28;20165;-45
2022/12/30 08:31:52;;;;;;;22.70;5.55;;;;;;;5.19;100.00;100736.59;5010294;28;20251;-43
2022/12/30 08:34:19;;;;;;;23.85;5.28;;;;;;;5.18;100.00;100729.50;5011199;28;20424;-45
2022/12/30 08:36:46;;;;;;;16.90;4.93;;;;;;;5.20;100.00;100738.31;5010772;28;20165;-43
2022/12/30 08:39:12;;;;;;;16.38;5.05;;;;;;;5.24;100.00;100746.22;5010968;28;20689;-42
2022/12/30 08:41:43;;;;;;;19.58;6.38;;;;;;;5.21;100.00;100738.31;5011079;28;20199;-41
2022/12/30 08:44:09;;;;;;;13.32;5.65;;;;;;;5.25;100.00;100733.81;5011114;28;20329;-44
2022/12/30 08:46:37;;;;;;;21.90;5.88;;;;;;;5.25;100.00;100747.09;5011178;28;20622;-44
2022/12/30 08:49:03;;;;;;;22.65;6.50;;;;;;;5.25;100.00;100737.34;5010967;28;20219;-49
2022/12/30 08:51:30;;;;;;;20.23;6.75;;;;;;;5.30;100.00;100730.16;5009531;28;20647;-45
2022/12/30 08:53:55;;;;;;;19.45;6.60;;;;;;;5.24;100.00;100732.94;5011059;28;20188;-43
2022/12/30 08:56:31;;;;;;;19.83;6.30;;;;;;;5.30;100.00;100727.50;5010698;28;20265;-48
2022/12/30 08:58:58;;;;;;;18.27;7.03;;;;;;;5.24;100.00;100740.03;5011755;28;20184;-41
2022/12/30 09:01:36;;;;;;;20.85;6.97;;;;;;;5.26;100.00;100744.41;5011003;28;20193;-45
2022/12/30 09:04:06;;;;;;;19.20;7.03;;;;;;;5.23;100.00;100752.44;5010475;28;20188;-46
2022/12/30 09:06:33;;;;;;;16.50;6.50;;;;;;;5.26;100.00;100746.19;5010678;28;20250;-41
2022/12/30 09:08:59;;;;;;;18.80;7.35;;;;;;;5.25;100.00;100753.28;5010167;28;20164;-42
2022/12/30 09:11:32;;;;;;;16.17;7.15;;;;;;;5.23;100.00;100741.81;5010126;28;20161;-44
2022/12/30 09:13:59;;;;;;;22.42;7.72;;;;;;;5.27;100.00;100740.84;5009828;28;20189;-44
2022/12/30 09:16:25;;;;;;;15.55;7.10;;;;;;;5.37;100.00;100746.88;5010726;28;20200;-43
2022/12/30 09:18:51;;;;;;;21.00;7.80;;;;;;;5.35;100.00;100754.84;5009739;28;20199;-42
2022/12/30 09:21:17;;;;;;;19.42;7.68;;;;;;;5.27;100.00;100740.84;5009746;28;20567;-44
2022/12/30 09:23:43;;;;;;;18.90;8.35;;;;;;;5.21;100.00;100748.06;5010117;28;20227;-43
2022/12/30 09:26:13;;;;;;;24.73;8.30;;;;;;;5.15;100.00;100744.59;5010448;28;20645;-45
2022/12/30 09:28:38;;;;;;;20.20;8.85;;;;;;;5.14;100.00;100729.56;5010191;28;20179;-44
2022/12/30 09:31:05;;;;;;;23.98;8.80;;;;;;;5.14;100.00;100736.66;5010413;28;20180;-43
2022/12/30 09:33:31;;;;;;;20.55;8.95;;;;;;;5.12;100.00;100746.44;5009012;28;20496;-45
2022/12/30 09:35:57;;;;;;;21.15;9.55;;;;;;;5.14;100.00;100745.50;5007777;28;20602;-42
2022/12/30 09:38:22;;;;;;;20.05;8.05;;;;;;;5.15;100.00;100752.56;5010060;28;20203;-44
2022/12/30 09:43:15;;;;;;;23.48;8.40;;;;;;;5.18;100.00;100746.31;5008138;28;20227;-45
2022/12/30 09:45:05;;;;;;;18.02;8.73;;;;;;;5.10;100.00;100730.53;5009134;28;20264;-42
2022/12/30 09:47:35;;;;;;;20.30;8.95;;;;;;;5.09;100.00;100735.84;4987148;28;20189;-43
2022/12/30 09:50:21;;;;;;;19.38;8.63;;;;;;;5.15;100.00;100733.97;5008980;28;20250;-44
2022/12/30 09:53:03;;;;;;;24.35;10.07;;;;;;;5.11;100.00;100742.00;5009273;28;20629;-46
2022/12/30 09:55:40;;;;;;;23.33;10.30;;;;;;;5.16;100.00;100734.88;5010003;28;20164;-44
2022/12/30 09:58:14;;;;;;;25.40;10.48;;;;;;;5.11;100.00;100728.72;4992601;28;20298;-42
2022/12/30 10:00:39;;;;;;;24.98;9.73;;;;;;;5.09;100.00;100730.53;5010154;28;20227;-44
2022/12/30 10:03:19;;;;;;;18.90;9.60;;;;;;;5.19;100.00;100725.97;5009995;28;20204;-43
2022/12/30 10:06:19;;;;;;;23.40;10.02;;;;;;;5.12;100.00;100718.09;5008791;28;20149;-43
2022/12/30 10:09:03;;;;;;;19.95;9.75;;;;;;;5.13;100.00;100711.00;5008911;28;20575;-44
2022/12/30 10:11:31;;;;;;;21.42;9.73;;;;;;;5.11;100.00;100713.66;5008997;28;20160;-44
2022/12/30 10:14:34;;;;;;;22.73;9.65;;;;;;;5.11;100.00;100716.31;5009581;28;20212;-44
2022/12/30 10:17:03;;;;;;;23.80;9.52;;;;;;;5.16;100.00;100710.97;5007854;28;20163;-45
2022/12/30 10:19:52;;;;;;;19.42;8.30;;;;;;;5.18;100.00;100700.28;5010023;28;20180;-44
2022/12/30 10:22:56;;;;;;;18.58;8.48;;;;;;;5.21;100.00;100703.78;5012867;28;20271;-43
2022/12/30 10:25:44;;;;;;;15.73;7.78;;;;;;;5.24;100.00;100695.75;5012467;28;20180;-43
2022/12/30 10:28:13;;;;;;;15.80;7.32;;;;;;;5.25;100.00;100691.31;5013576;28;20244;-43
2022/12/30 10:30:45;;;;;;;18.27;7.40;;;;;;;5.26;100.00;100687.75;5013727;28;20599;-44
2022/12/30 10:33:19;;;;;;;19.73;6.90;;;;;;;5.30;100.00;100698.28;5013492;28;20284;-47
2022/12/30 10:35:48;;;;;;;17.40;6.90;;;;;;;5.34;100.00;100688.50;5013245;28;20701;-42
2022/12/30 10:38:17;;;;;;;15.85;5.43;;;;;;;5.42;100.00;100685.66;5013657;28;20185;-43
2022/12/30 10:40:50;;;;;;;18.83;5.75;;;;;;;5.52;100.00;100673.97;5013095;28;20222;-45
2022/12/30 10:43:34;;;;;;;20.73;6.43;;;;;;;5.54;100.00;100666.84;5013353;28;20201;-47
2022/12/30 10:46:06;;;;;;;21.13;5.95;;;;;;;5.52;100.00;100668.66;5013229;28;20165;-46
2022/12/30 10:48:31;;;;;;;18.08;5.95;;;;;;;5.52;100.00;100652.72;5013247;28;20161;-47
2022/12/30 10:50:57;;;;;;;20.13;6.03;;;;;;;5.61;100.00;100656.97;5013177;28;20157;-43
2022/12/30 10:53:26;;;;;;;17.85;5.45;;;;;;;5.64;100.00;100636.53;5013048;28;20272;-44
2022/12/30 10:55:55;;;;;;;14.77;4.78;;;;;;;5.58;100.00;100642.81;5013192;28;20583;-45
2022/12/30 10:58:41;;;;;;;15.85;5.57;;;;;;;5.63;100.00;100637.41;5008964;28;20172;-45
2022/12/30 11:01:26;;;;;;;21.80;5.57;;;;;;;5.77;100.00;100615.84;5032715;28;20239;-45
2022/12/30 11:03:56;;;;;;;17.80;4.75;;;;;;;5.76;100.00;100607.00;5032710;28;20262;-43
2022/12/30 11:06:36;;;;;;;14.93;4.90;;;;;;;5.81;100.00;100617.53;5032441;28;20171;-42
2022/12/30 11:09:10;;;;;;;16.15;4.63;;;;;;;5.81;100.00;100611.34;5032941;28;20702;-44
2022/12/30 11:15:10;;;;;;;14.13;4.78;;;;;;;5.74;100.00;100600.84;5032654;28;20182;-46
2022/12/30 11:17:45;;;;;;;11.50;4.50;;;;;;;5.76;100.00;100593.69;5032488;28;20193;-42
2022/12/30 11:20:32;;;;;;;15.77;4.50;;;;;;;5.82;100.00;100595.38;5032171;28;20210;-46
2022/12/30 11:23:00;;;;;;;17.30;4.15;;;;;;;5.68;100.00;100577.03;5032514;28;20204;-43
2022/12/30 11:25:29;;;;;;;16.63;4.32;;;;;;;5.74;100.00;100587.53;5032258;28;20251;-44
2022/12/30 11:28:01;;;;;;;12.95;4.15;;;;;;;5.68;100.00;100587.69;5032344;28;20226;-41
2022/12/30 11:30:32;;;;;;;14.93;4.13;;;;;;;5.75;100.00;100578.69;5032493;28;20366;-43
2022/12/30 11:33:03;;;;;;;14.13;4.43;;;;;;;5.75;100.00;100573.38;5031457;28;20220;-42
2022/12/30 11:35:32;;;;;;;15.90;4.15;;;;;;;5.81;100.00;100572.34;5032203;28;20517;-42
2022/12/30 11:37:58;;;;;;;14.43;3.92;;;;;;;5.78;100.00;100567.97;5032034;28;20635;-45
2022/12/30 11:40:31;;;;;;;16.92;4.05;;;;;;;5.78;100.00;100560.00;5031939;28;20206;-44
2022/12/30 11:43:23;;;;;;;10.27;3.75;;;;;;;5.80;100.00;100556.44;5032134;28;20198;-44
2022/12/30 11:46:02;;;;;;;14.13;3.70;;;;;;;5.83;100.00;100562.53;5028891;28;20196;-45
2022/12/30 11:48:47;;;;;;;14.45;3.63;;;;;;;5.88;100.00;100552.69;5031934;28;20254;-42
2022/12/30 11:51:35;;;;;;;14.60;3.83;;;;;;;5.91;100.00;100559.72;5030441;28;20175;-43
2022/12/30 11:54:25;;;;;;;13.80;3.97;;;;;;;5.90;100.00;100549.97;5020885;28;20223;-46
2022/12/30 11:57:03;;;;;;;11.60;3.88;;;;;;;5.87;100.00;100539.44;5022835;28;20196;-43
2022/12/30 11:59:45;;;;;;;14.55;3.13;;;;;;;5.85;100.00;100543.91;5031694;28;20172;-45
2022/12/30 12:02:35;;;;;;;13.32;3.35;;;;;;;5.83;100.00;100535.09;5030410;28;20705;-41
2022/12/30 12:05:22;;;;;;;16.98;3.85;;;;;;;5.89;100.00;100534.94;5023971;28;20228;-47
2022/12/30 12:07:51;;;;;;;7.78;2.70;;;;;;;5.94;100.00;100533.03;5031471;28;20168;-44
2022/12/30 12:10:22;;;;;;;13.18;3.05;;;;;;;5.89;100.00;100522.53;5031220;28;20164;-42
2022/12/30 12:12:48;;;;;;;12.32;2.75;;;;;;;5.92;100.00;100505.63;5030297;28;20203;-42
2022/12/30 12:15:19;;;;;;;13.80;2.92;;;;;;;5.93;100.00;100504.72;5031617;28;20531;-42
2022/12/30 12:18:04;;;;;;;16.65;3.03;;;;;;;5.96;100.00;100497.56;5031073;28;20246;-42
2022/12/30 12:20:33;;;;;;;11.73;3.05;;;;;;;5.97;100.00;100482.50;5030022;28;20199;-46
2022/12/30 12:23:20;;;;;;;13.45;3.78;;;;;;;5.98;100.00;100492.22;5030922;28;20203;-43
2022/12/30 12:26:06;;;;;;;16.58;2.88;;;;;;;6.01;100.00;100485.94;5031643;28;20771;-42
2022/12/30 12:28:32;;;;;;;10.38;2.92;;;;;;;5.96;100.00;100478.94;5020668;28;20394;-42